Time;durP1;ratioP1;P1;durP2;ratioP2;P2;SDS_P1;SDS_P2;PMS_P1;PMS_P2;Temp;Humidity;BMP_temperature;BMP_pressure;BME280_temperature;BME280_humidity;BME280_pressure;Samples;Min_cycle;Max_cycle;Signal;HPM_P1;HPM_P2
2022/02/07 00:00:22;;;;;;;;;0.00;0.00;;;;;12.04;61.39;101287.47;5010768;28;45307;-66
2022/02/07 00:05:26;;;;;;;;;2.00;1.00;;;;;12.02;61.64;101289.28;5026437;28;45500;-65
2022/02/07 00:07:52;;;;;;;;;0.25;0.25;;;;;12.03;61.33;101308.91;5038999;28;45233;-65
2022/02/07 00:10:18;;;;;;;;;1.50;0.00;;;;;12.03;61.05;101308.91;5039133;28;45430;-66
2022/02/07 00:12:46;;;;;;;;;2.00;0.00;;;;;12.00;61.00;101317.91;5022703;28;45202;-65
2022/02/07 00:15:13;;;;;;;;;0.00;0.00;;;;;11.98;60.65;101330.44;5042279;28;46231;-65
2022/02/07 00:17:39;;;;;;;;;1.00;1.00;;;;;11.97;60.38;101343.88;5042180;28;45573;-65
2022/02/07 00:20:10;;;;;;;;;0.75;0.75;;;;;11.93;60.19;101345.75;5042109;28;45262;-66
2022/02/07 00:22:36;;;;;;;;;0.00;0.00;;;;;11.89;60.28;101335.16;5042260;28;45649;-65
2022/02/07 00:25:03;;;;;;;;;0.75;0.00;;;;;11.89;60.43;101343.19;5042374;28;45418;-66
2022/02/07 00:27:28;;;;;;;;;1.00;0.00;;;;;11.94;60.57;101347.50;5022204;28;45452;-65
2022/02/07 00:29:54;;;;;;;;;1.00;0.75;;;;;11.94;60.15;101350.16;5042397;28;45274;-66
2022/02/07 00:32:19;;;;;;;;;2.00;1.00;;;;;11.92;60.28;101369.88;5036683;28;45346;-66
2022/02/07 00:34:45;;;;;;;;;0.00;0.00;;;;;11.93;60.15;101383.22;5041744;28;45245;-65
2022/02/07 00:37:10;;;;;;;;;0.75;0.75;;;;;11.90;60.10;101374.38;5042064;28;45248;-65
2022/02/07 00:39:44;;;;;;;;;0.75;0.00;;;;;11.94;60.18;101379.59;5042344;28;45532;-65
2022/02/07 00:42:20;;;;;;;;;2.00;0.00;;;;;11.90;60.19;101387.75;5041726;28;45435;-66
2022/02/07 00:44:48;;;;;;;;;1.00;1.00;;;;;11.92;59.90;101383.25;5042003;28;46376;-65
2022/02/07 00:47:15;;;;;;;;;2.75;0.00;;;;;11.91;59.91;101386.81;5040596;28;45290;-65
2022/02/07 00:49:44;;;;;;;;;1.50;0.75;;;;;11.88;59.77;101398.50;5041839;28;45377;-65
2022/02/07 00:52:10;;;;;;;;;4.00;0.75;;;;;11.83;59.64;101403.09;5041819;28;45309;-66
2022/02/07 00:54:35;;;;;;;;;1.25;1.00;;;;;11.84;59.28;101432.47;5041513;28;45567;-65
2022/02/07 00:57:01;;;;;;;;;0.50;0.50;;;;;11.78;59.74;101429.09;5039612;28;45295;-66
2022/02/07 00:59:26;;;;;;;;;2.00;2.00;;;;;11.71;59.43;101423.00;5041867;28;45227;-65
2022/02/07 01:01:51;;;;;;;;;1.25;1.25;;;;;11.72;59.53;101430.09;5041741;28;45302;-65
2022/02/07 01:04:17;;;;;;;;;3.00;0.00;;;;;11.69;59.46;101438.19;5041402;28;46248;-65
2022/02/07 01:06:43;;;;;;;;;1.00;0.00;;;;;11.68;59.23;101464.06;5035223;28;45340;-66
2022/02/07 01:09:15;;;;;;;;;2.00;0.00;;;;;11.67;59.03;101473.00;5041915;28;45313;-66
2022/02/07 01:22:34;;;;;;;;;1.75;0.00;;;;;11.51;57.33;101511.75;5041539;28;45371;-65
2022/02/07 01:54:33;;;;;;;;;2.50;0.50;;;;;11.16;56.12;101616.78;5040889;28;45785;-65
2022/02/07 01:56:58;;;;;;;;;3.25;0.25;;;;;11.17;56.06;101629.22;5038268;28;46023;-65
2022/02/07 01:59:24;;;;;;;;;0.00;0.00;;;;;11.14;56.14;101616.81;5040795;28;45230;-65
2022/02/07 02:01:50;;;;;;;;;0.00;0.00;;;;;11.12;55.70;101627.53;5040915;28;45327;-65
2022/02/07 02:04:15;;;;;;;;;2.25;0.75;;;;;11.10;55.49;101637.38;5038200;28;45458;-65
2022/02/07 02:06:41;;;;;;;;;1.00;1.00;;;;;11.08;55.59;101657.91;5040091;28;45345;-65
2022/02/07 02:09:07;;;;;;;;;1.00;1.00;;;;;11.06;55.29;101659.72;5040874;28;45560;-65
2022/02/07 02:11:36;;;;;;;;;0.25;0.25;;;;;11.02;55.40;101641.97;5040625;28;45332;-65
2022/02/07 02:16:40;;;;;;;;;0.00;0.00;;;;;11.03;55.39;101661.59;5036603;28;45382;-65
2022/02/07 02:38:39;;;;;;;;;1.00;0.00;;;;;10.98;54.53;101704.41;5031672;28;45356;-65
2022/02/07 02:46:32;;;;;;;;;1.00;0.00;;;;;10.97;54.58;101733.81;5040314;28;45288;-65
2022/02/07 02:49:01;;;;;;;;;0.50;0.00;;;;;10.96;54.40;101743.63;5039980;28;46002;-65
2022/02/07 02:51:28;;;;;;;;;0.50;0.25;;;;;10.88;54.08;101746.44;5039989;28;45275;-65
2022/02/07 02:53:54;;;;;;;;;0.00;0.00;;;;;10.87;53.71;101766.03;5038298;28;45412;-65
2022/02/07 02:56:20;;;;;;;;;0.50;0.00;;;;;10.89;54.27;101771.34;5035103;28;45372;-66
2022/02/07 02:58:45;;;;;;;;;1.00;1.00;;;;;10.86;54.14;101758.94;5039923;28;45322;-65
2022/02/07 03:01:11;;;;;;;;;1.00;0.00;;;;;10.85;53.96;101762.50;5038241;28;45344;-65
2022/02/07 03:03:36;;;;;;;;;0.50;0.50;;;;;10.85;54.33;101758.97;5040103;28;45321;-65
2022/02/07 03:06:02;;;;;;;;;0.00;0.00;;;;;10.78;53.80;101760.88;5039701;28;45510;-65
2022/02/07 03:08:27;;;;;;;;;1.00;0.00;;;;;10.70;54.13;101760.97;5039915;28;45631;-65
2022/02/07 03:13:34;;;;;;;;;1.25;0.25;;;;;10.68;54.40;101753.91;5040029;28;45324;-65
2022/02/07 03:18:44;;;;;;;;;0.00;0.00;;;;;10.70;54.35;101777.00;5038401;28;45809;-65
2022/02/07 03:21:09;;;;;;;;;1.50;0.50;;;;;10.69;53.91;101766.34;5038986;28;45284;-65
2022/02/07 03:23:34;;;;;;;;;1.75;1.50;;;;;10.69;53.79;101769.00;5039954;28;45357;-65
2022/02/07 03:26:00;;;;;;;;;1.50;1.00;;;;;10.65;53.74;101769.97;5039226;28;45251;-65
2022/02/07 03:28:28;;;;;;;;;2.75;0.00;;;;;10.69;54.07;101787.72;5036857;28;46880;-65
2022/02/07 03:30:54;;;;;;;;;0.25;0.25;;;;;10.61;54.03;101781.59;5039486;28;45410;-65
2022/02/07 03:33:20;;;;;;;;;0.00;0.00;;;;;10.66;54.11;101796.66;5039667;28;45404;-65
2022/02/07 03:35:45;;;;;;;;;1.75;1.00;;;;;10.70;54.20;101801.03;5037528;28;45439;-65
2022/02/07 03:38:11;;;;;;;;;2.00;0.75;;;;;10.72;54.02;101809.03;5039550;28;45281;-65
2022/02/07 03:40:39;;;;;;;;;1.00;1.00;;;;;10.70;54.18;101811.72;5039116;28;45372;-65
2022/02/07 03:43:04;;;;;;;;;0.75;0.75;;;;;10.71;53.88;101824.19;5039589;28;45753;-65
2022/02/07 03:45:30;;;;;;;;;3.50;0.50;;;;;10.71;54.06;101840.19;5039278;28;45463;-65
2022/02/07 03:47:56;;;;;;;;;0.00;0.00;;;;;10.70;53.95;101843.75;5040300;28;45438;-65
2022/02/07 03:50:21;;;;;;;;;1.00;1.00;;;;;10.69;54.11;101843.78;5042489;28;45316;-65
2022/02/07 03:52:47;;;;;;;;;0.75;0.00;;;;;10.70;53.69;101846.44;5041265;28;45204;-65
2022/02/07 03:55:13;;;;;;;;;1.00;0.00;;;;;10.69;54.38;101850.03;5042470;28;45223;-65
2022/02/07 03:57:39;;;;;;;;;0.00;0.00;;;;;10.70;54.38;101856.25;5042765;28;46158;-65
2022/02/07 04:00:07;;;;;;;;;1.00;1.00;;;;;10.65;53.90;101852.75;5042421;28;45328;-65
2022/02/07 04:02:36;;;;;;;;;2.00;0.00;;;;;10.62;53.67;101861.69;5042972;28;45419;-65
2022/02/07 04:05:28;;;;;;;;;0.75;0.75;;;;;10.59;53.97;101858.19;5042271;28;45458;-65
2022/02/07 04:07:48;;;;;;;;;1.25;1.00;;;;;10.61;53.78;101867.03;5027497;28;45259;-65
2022/02/07 04:10:13;;;;;;;;;0.00;0.00;;;;;10.59;54.34;101869.72;5041046;28;45402;-65
2022/02/07 04:12:45;;;;;;;;;1.00;0.00;;;;;10.60;53.85;101884.00;5042784;28;45297;-65
2022/02/07 04:15:15;;;;;;;;;0.00;0.00;;;;;10.61;53.92;101886.63;5042584;28;45395;-65
2022/02/07 04:17:45;;;;;;;;;0.00;0.00;;;;;10.60;53.85;101895.53;5041030;28;46922;-65
2022/02/07 04:20:11;;;;;;;;;2.00;0.00;;;;;10.60;53.83;101894.66;5042069;28;45708;-65
2022/02/07 04:22:36;;;;;;;;;1.25;0.25;;;;;10.60;54.23;101919.56;5042534;28;45279;-65
2022/02/07 04:25:02;;;;;;;;;2.00;0.00;;;;;10.56;54.10;101909.84;5041288;28;45241;-65
2022/02/07 04:27:27;;;;;;;;;3.00;1.00;;;;;10.58;54.26;101921.38;5040424;28;46319;-65
2022/02/07 04:29:52;;;;;;;;;2.00;1.00;;;;;10.55;53.99;101919.63;5042294;28;45383;-65
2022/02/07 04:32:18;;;;;;;;;1.25;0.00;;;;;10.56;53.54;101932.09;5042292;28;45402;-65
2022/02/07 04:34:43;;;;;;;;;4.50;1.00;;;;;10.53;53.63;101926.78;5041844;28;45283;-65
2022/02/07 04:37:08;;;;;;;;;2.00;0.25;;;;;10.56;53.77;101937.44;5042068;28;46051;-65
2022/02/07 04:39:34;;;;;;;;;0.75;0.00;;;;;10.55;53.87;101941.00;5042287;28;45272;-65
2022/02/07 04:42:04;;;;;;;;;0.00;0.00;;;;;10.55;53.61;101950.78;5042060;28;45437;-65
2022/02/07 04:44:36;;;;;;;;;1.00;1.00;;;;;10.53;53.85;101955.28;5040697;28;45525;-65
2022/02/07 04:47:19;;;;;;;;;1.00;1.00;;;;;10.53;53.88;101964.16;5040708;28;46014;-65
2022/02/07 04:58:00;;;;;;;;;2.50;0.00;;;;;10.46;53.74;101956.28;5041674;28;45318;-65
2022/02/07 05:00:36;;;;;;;;;0.75;0.00;;;;;10.49;53.75;101964.22;5027714;28;45425;-65
2022/02/07 05:03:11;;;;;;;;;1.00;0.00;;;;;10.44;53.40;101953.63;5040452;28;45421;-65
2022/02/07 05:16:21;;;;;;;;;2.25;0.00;;;;;10.47;53.21;102000.72;5036935;28;45398;-65
2022/02/07 05:18:53;;;;;;;;;1.75;0.00;;;;;10.45;53.79;102005.22;5041021;28;47123;-65
2022/02/07 05:21:19;;;;;;;;;2.00;1.00;;;;;10.44;53.62;102008.78;5040688;28;45591;-65
2022/02/07 05:23:44;;;;;;;;;1.00;1.00;;;;;10.42;53.48;102002.56;5032097;28;45238;-65
2022/02/07 05:26:10;;;;;;;;;1.00;1.00;;;;;10.44;54.03;102024.78;5033586;28;45237;-65
2022/02/07 05:28:36;;;;;;;;;2.00;1.00;;;;;10.43;53.66;102026.59;5041420;28;45351;-65
2022/02/07 05:31:01;;;;;;;;;2.00;0.00;;;;;10.44;54.06;102025.69;5041207;28;45351;-65
2022/02/07 05:33:26;;;;;;;;;1.50;0.00;;;;;10.41;54.00;102025.72;5019893;28;45438;-65
2022/02/07 05:35:52;;;;;;;;;1.00;1.00;;;;;10.41;53.94;102032.81;5040722;28;45355;-65
2022/02/07 05:38:17;;;;;;;;;2.75;0.00;;;;;10.40;54.03;102034.63;5041400;28;45272;-65
2022/02/07 05:41:00;;;;;;;;;2.25;1.00;;;;;10.31;54.00;102022.22;5040730;28;45442;-65
2022/02/07 05:43:25;;;;;;;;;2.50;1.00;;;;;10.34;53.85;102038.25;5034095;28;45361;-65
2022/02/07 05:45:51;;;;;;;;;1.00;1.00;;;;;10.38;53.46;102055.97;5041096;28;45603;-65
2022/02/07 05:48:16;;;;;;;;;4.00;1.75;;;;;10.38;53.82;102055.09;5041149;28;45233;-65
2022/02/07 05:50:41;;;;;;;;;1.00;1.00;;;;;10.36;53.78;102060.47;5038750;28;45427;-65
2022/02/07 05:53:07;;;;;;;;;1.00;0.00;;;;;10.37;53.65;102074.69;5040969;28;45302;-65
2022/02/07 05:55:32;;;;;;;;;3.50;1.00;;;;;10.37;53.98;102080.94;5038402;28;45630;-65
2022/02/07 05:57:59;;;;;;;;;2.00;0.00;;;;;10.36;53.58;102083.59;5040690;28;46588;-65
2022/02/07 06:00:25;;;;;;;;;3.00;2.00;;;;;10.38;53.63;102087.13;5040794;28;45533;-65
2022/02/07 06:02:51;;;;;;;;;2.50;1.50;;;;;10.38;53.69;102081.81;5040989;28;45511;-65
2022/02/07 06:05:16;;;;;;;;;2.00;1.00;;;;;10.42;54.01;102088.00;5039165;28;45313;-65
2022/02/07 06:07:42;;;;;;;;;1.75;1.00;;;;;10.42;53.60;102091.53;5040777;28;45323;-65
2022/02/07 06:10:08;;;;;;;;;3.00;1.00;;;;;10.37;54.00;102088.03;5030232;28;45385;-65
2022/02/07 06:12:38;;;;;;;;;2.50;1.75;;;;;10.39;53.73;102102.28;5040629;28;45399;-65
2022/02/07 06:15:06;;;;;;;;;0.00;0.00;;;;;10.36;53.75;102105.84;5040740;28;45362;-65
2022/02/07 06:17:31;;;;;;;;;3.25;1.00;;;;;10.36;53.65;102105.84;5040383;28;47037;-65
2022/02/07 06:19:58;;;;;;;;;2.00;0.75;;;;;10.33;53.67;102107.66;5040334;28;45372;-65
2022/02/07 06:22:25;;;;;;;;;1.25;1.25;;;;;10.36;54.34;102115.63;5038851;28;45362;-65
2022/02/07 06:24:51;;;;;;;;;2.00;0.50;;;;;10.37;54.10;102114.72;5040675;28;45443;-65
2022/02/07 06:27:16;;;;;;;;;2.50;1.00;;;;;10.32;53.85;102117.47;5038476;28;46174;-65
2022/02/07 06:29:42;;;;;;;;;2.25;1.50;;;;;10.33;53.66;102118.34;5040446;28;45541;-65
2022/02/07 06:32:08;;;;;;;;;1.00;1.00;;;;;10.33;53.86;102126.34;5040265;28;45349;-65
2022/02/07 06:34:33;;;;;;;;;1.00;1.00;;;;;10.31;54.13;102129.00;5039845;28;45557;-65
2022/02/07 06:36:59;;;;;;;;;2.75;1.50;;;;;10.33;54.50;102139.69;5040297;28;45244;-65
2022/02/07 06:39:24;;;;;;;;;2.25;0.75;;;;;10.28;53.84;102128.13;5038612;28;45380;-65
2022/02/07 06:41:51;;;;;;;;;4.25;2.00;;;;;10.27;54.36;102137.91;5040143;28;45394;-64
2022/02/07 06:44:17;;;;;;;;;2.00;1.25;;;;;10.25;54.09;102136.16;5040110;28;45322;-64
2022/02/07 06:46:42;;;;;;;;;1.00;1.00;;;;;10.22;54.07;102147.72;5040094;28;46236;-65
2022/02/07 06:49:08;;;;;;;;;2.50;1.00;;;;;10.23;54.19;102154.84;5039895;28;45328;-64
2022/02/07 06:51:33;;;;;;;;;1.00;1.00;;;;;10.24;54.18;102161.97;5039439;28;45519;-65
2022/02/07 06:53:58;;;;;;;;;1.25;1.25;;;;;10.23;54.83;102168.19;5039694;28;45471;-65
2022/02/07 06:56:25;;;;;;;;;2.25;0.50;;;;;10.27;54.37;102175.28;5034058;28;45479;-65
2022/02/07 06:58:51;;;;;;;;;1.50;1.00;;;;;10.26;54.52;102168.19;5039365;28;45544;-65
2022/02/07 07:01:16;;;;;;;;;0.50;0.25;;;;;10.22;54.58;102173.53;5039529;28;45407;-66
2022/02/07 07:03:44;;;;;;;;;2.75;1.25;;;;;10.25;54.49;102179.75;5037324;28;45527;-65
2022/02/07 07:06:11;;;;;;;;;1.00;1.00;;;;;10.26;54.24;102186.84;5039297;28;45469;-65
2022/02/07 07:08:43;;;;;;;;;5.25;2.00;;;;;10.24;54.04;102185.09;5039770;28;45402;-65
2022/02/07 07:11:10;;;;;;;;;1.00;1.00;;;;;10.22;54.47;102182.44;5015039;28;47159;-65
2022/02/07 07:13:43;;;;;;;;;3.25;1.00;;;;;10.22;54.44;102193.09;5037568;28;45378;-65
2022/02/07 07:16:51;;;;;;;;;2.00;2.00;;;;;10.22;54.40;102189.56;5044863;28;46127;-65
2022/02/07 07:18:57;;;;;;;;;1.00;1.00;;;;;10.20;54.85;102193.13;5016895;28;45685;-66
2022/02/07 07:21:25;;;;;;;;;2.75;2.00;;;;;10.22;54.68;102206.44;5020913;28;45360;-65
2022/02/07 07:23:50;;;;;;;;;0.25;0.25;;;;;10.21;54.72;102212.69;5021027;28;45884;-65
2022/02/07 07:26:16;;;;;;;;;4.25;2.75;;;;;10.16;54.36;102209.19;5018801;28;47075;-65
2022/02/07 07:28:42;;;;;;;;;4.75;2.00;;;;;10.19;54.79;102231.38;5038648;28;45250;-65
2022/02/07 07:31:10;;;;;;;;;3.00;1.75;;;;;10.18;54.73;102237.63;5038055;28;45411;-65
2022/02/07 07:33:37;;;;;;;;;1.00;1.00;;;;;10.15;54.65;102228.75;5039057;28;45537;-65
2022/02/07 07:36:03;;;;;;;;;3.00;1.50;;;;;10.18;54.61;102245.63;5039078;28;45375;-65
2022/02/07 07:38:28;;;;;;;;;2.50;1.50;;;;;10.15;54.58;102244.75;5038769;28;45556;-65
2022/02/07 07:40:54;;;;;;;;;2.00;2.00;;;;;10.18;54.63;102245.63;5039422;28;45244;-65
2022/02/07 07:43:20;;;;;;;;;3.00;3.00;;;;;10.18;55.14;102256.28;5039129;28;45508;-66
2022/02/07 07:45:47;;;;;;;;;6.00;2.75;;;;;10.18;54.61;102258.09;5039119;28;45456;-66
2022/02/07 07:48:19;;;;;;;;;3.75;2.75;;;;;10.17;54.55;102280.31;5038817;28;45209;-66
2022/02/07 08:03:51;;;;;;;;;2.50;2.00;;;;;10.17;54.81;102315.00;5038620;28;45508;-66
2022/02/07 08:06:24;;;;;;;;;5.50;3.00;;;;;10.20;54.87;102334.56;5037334;28;46304;-66
2022/02/07 08:09:14;;;;;;;;;2.75;1.25;;;;;10.18;55.61;102324.78;5037424;28;45347;-65
2022/02/07 08:11:38;;;;;;;;;3.00;2.00;;;;;10.24;55.00;102331.88;5038043;28;45494;-66
2022/02/07 08:14:04;;;;;;;;;2.00;2.00;;;;;10.22;55.22;102336.34;5033798;28;45162;-66
2022/02/07 08:16:30;;;;;;;;;3.00;1.00;;;;;10.19;55.30;102323.91;5037961;28;45467;-66
2022/02/07 08:19:01;;;;;;;;;3.00;1.50;;;;;10.24;54.91;102343.44;5020793;28;45328;-66
2022/02/07 08:21:28;;;;;;;;;2.00;1.25;;;;;10.28;55.04;102347.00;5036420;28;45436;-67
2022/02/07 08:23:53;;;;;;;;;3.75;2.00;;;;;10.27;55.00;102354.09;5038393;28;45289;-66
2022/02/07 08:26:19;;;;;;;;;5.50;2.00;;;;;10.28;55.18;102350.53;5038284;28;45353;-64
2022/02/07 08:28:45;;;;;;;;;5.50;1.75;;;;;10.30;55.42;102355.88;5037200;28;45387;-66
2022/02/07 08:31:11;;;;;;;;;3.25;2.00;;;;;10.31;55.20;102368.31;5038222;28;45457;-66
2022/02/07 08:33:37;;;;;;;;;4.75;1.75;;;;;10.19;55.21;102358.59;5039159;28;45552;-66
2022/02/07 08:36:05;;;;;;;;;1.00;1.00;;;;;10.26;54.97;102375.47;5040884;28;45447;-65
2022/02/07 08:38:30;;;;;;;;;2.25;1.00;;;;;10.25;54.82;102374.56;5038186;28;45296;-66
2022/02/07 08:40:56;;;;;;;;;1.75;1.75;;;;;10.30;54.87;102386.09;5040164;28;45812;-67
2022/02/07 08:43:21;;;;;;;;;2.00;2.00;;;;;10.30;55.61;102388.78;5041906;28;45398;-66
2022/02/07 08:45:46;;;;;;;;;3.25;2.25;;;;;10.27;55.70;102390.56;5041011;28;46484;-66
2022/02/07 08:48:12;;;;;;;;;4.25;3.00;;;;;10.29;55.04;102391.44;5041361;28;45435;-66
2022/02/07 08:50:38;;;;;;;;;1.75;1.00;;;;;10.33;55.37;102393.25;5040588;28;45650;-65
2022/02/07 08:53:05;;;;;;;;;2.75;2.25;;;;;10.35;55.54;102389.66;5037606;28;45491;-66
2022/02/07 08:55:36;;;;;;;;;2.25;1.75;;;;;10.38;55.44;102388.78;5037926;28;45359;-66
2022/02/07 08:58:16;;;;;;;;;2.00;2.00;;;;;10.38;55.14;102391.44;5041230;28;45340;-66
2022/02/07 09:00:51;;;;;;;;;5.00;4.00;;;;;10.41;55.64;102411.88;5028586;28;45536;-67
2022/02/07 09:10:44;;;;;;;;;4.50;4.50;;;;;10.50;55.47;102443.91;5038864;28;46882;-66
2022/02/07 09:13:10;;;;;;;;;6.25;3.00;;;;;10.50;55.72;102447.44;5040762;28;45439;-66
2022/02/07 09:18:07;;;;;;;;;5.00;3.00;;;;;10.51;55.12;102445.69;5041035;28;45576;-66
2022/02/07 09:20:36;;;;;;;;;5.50;4.00;;;;;10.54;55.31;102459.91;5039928;28;45327;-67
2022/02/07 09:23:02;;;;;;;;;8.00;3.00;;;;;10.56;55.57;102463.44;5039783;28;45510;-69
2022/02/07 09:25:28;;;;;;;;;3.50;3.00;;;;;10.55;55.50;102463.44;5040257;28;45650;-69
2022/02/07 09:27:53;;;;;;;;;4.00;2.75;;;;;10.59;55.68;102470.53;5039212;28;45463;-69
2022/02/07 09:30:19;;;;;;;;;4.00;3.00;;;;;10.62;55.31;102485.66;5040125;28;45680;-69
2022/02/07 09:32:45;;;;;;;;;5.75;4.50;;;;;10.62;55.76;102488.34;5038664;28;45297;-69
2022/02/07 09:35:12;;;;;;;;;6.50;3.00;;;;;10.67;55.19;102492.75;5019644;28;46981;-69
2022/02/07 09:37:38;;;;;;;;;3.50;2.25;;;;;10.67;55.31;102511.44;5040391;28;46721;-66
2022/02/07 09:40:04;;;;;;;;;2.50;2.00;;;;;10.64;55.22;102511.50;5039912;28;45808;-66
2022/02/07 09:42:30;;;;;;;;;3.25;2.00;;;;;10.69;55.27;102524.78;5040191;28;45538;-66
2022/02/07 09:45:06;;;;;;;;;3.50;2.00;;;;;10.65;55.50;102534.63;5039782;28;46059;-67
2022/02/07 09:47:32;;;;;;;;;7.25;4.00;;;;;10.71;55.53;102552.41;5038899;28;45668;-67
2022/02/07 09:49:58;;;;;;;;;4.00;3.00;;;;;10.73;55.21;102551.50;5039949;28;45557;-67
2022/02/07 09:52:23;;;;;;;;;3.50;2.75;;;;;10.74;55.07;102550.63;5040834;28;45308;-67
2022/02/07 09:54:48;;;;;;;;;3.25;1.25;;;;;10.75;54.65;102559.50;5038652;28;45386;-67
2022/02/07 09:57:18;;;;;;;;;4.25;2.00;;;;;10.71;55.05;102547.06;5040683;28;45246;-67
2022/02/07 09:59:44;;;;;;;;;4.00;3.75;;;;;10.75;55.47;102563.06;5040438;28;45463;-66
2022/02/07 10:02:35;;;;;;;;;3.50;2.25;;;;;10.77;55.22;102560.38;5040639;28;45385;-66
2022/02/07 10:05:05;;;;;;;;;3.00;2.50;;;;;10.83;55.43;102568.38;5023481;28;46094;-66
2022/02/07 10:07:41;;;;;;;;;5.75;3.00;;;;;10.87;55.13;102580.81;5029691;28;45652;-66
2022/02/07 10:10:18;;;;;;;;;6.00;3.00;;;;;10.89;55.42;102587.06;5028914;28;45430;-66
2022/02/07 10:13:16;;;;;;;;;3.00;1.75;;;;;10.89;54.75;102588.81;5023679;28;45369;-66
2022/02/07 10:18:23;;;;;;;;;4.75;3.00;;;;;10.91;54.72;102595.94;5040189;28;45628;-74
2022/02/07 10:40:53;;;;;;;;;3.50;1.00;;;;;11.06;53.95;102597.66;5030838;28;45654;-66
2022/02/07 10:45:57;;;;;;;;;5.00;1.25;;;;;11.15;54.30;102603.88;5039177;28;45465;-66
2022/02/07 10:48:36;;;;;;;;;3.25;2.00;;;;;11.17;53.65;102608.28;5037437;28;46749;-67
2022/02/07 10:51:07;;;;;;;;;3.75;2.00;;;;;11.20;54.13;102608.28;5037263;28;45744;-66
2022/02/07 10:53:42;;;;;;;;;2.75;2.00;;;;;11.24;54.03;102609.16;5038882;28;45560;-67
2022/02/07 10:56:08;;;;;;;;;3.50;3.00;;;;;11.27;53.49;102601.13;5038452;28;45538;-66
2022/02/07 10:58:34;;;;;;;;;2.25;1.75;;;;;11.27;53.33;102598.44;5038561;28;45368;-66
2022/02/07 11:01:13;;;;;;;;;5.00;2.00;;;;;11.26;53.24;102599.31;5039043;28;45832;-66
2022/02/07 11:03:48;;;;;;;;;2.75;1.50;;;;;11.31;53.60;102600.22;5038060;28;45146;-66
2022/02/07 11:06:17;;;;;;;;;1.75;0.75;;;;;11.31;53.03;102600.22;5039515;28;45289;-66
2022/02/07 11:11:29;;;;;;;;;2.25;1.75;;;;;11.30;52.61;102593.09;5039387;28;45510;-66
2022/02/07 11:16:39;;;;;;;;;1.25;1.25;;;;;11.43;52.81;102607.28;5037479;28;45435;-66
2022/02/07 11:19:23;;;;;;;;;2.00;1.00;;;;;11.37;52.24;102592.16;5037301;28;45964;-66
2022/02/07 11:23:05;;;;;;;;;1.75;1.00;;;;;11.47;52.29;102603.69;5024250;28;45855;-66
2022/02/07 11:27:49;;;;;;;;;0.00;0.00;;;;;11.47;51.34;102592.97;5039438;28;45280;-66
2022/02/07 11:30:16;;;;;;;;;0.00;0.00;;;;;11.49;51.12;102596.53;5034915;28;46062;-66
2022/02/07 11:32:42;;;;;;;;;2.00;1.00;;;;;11.50;51.42;102596.50;5040609;28;45694;-66
2022/02/07 11:35:17;;;;;;;;;2.00;0.25;;;;;11.54;51.18;102607.19;5039279;28;45350;-66
2022/02/07 11:37:49;;;;;;;;;2.00;0.25;;;;;11.53;50.83;102616.09;5039182;28;45256;-66
2022/02/07 11:40:40;;;;;;;;;2.75;1.00;;;;;11.56;51.00;102613.41;5037462;28;46388;-66
2022/02/07 11:43:19;;;;;;;;;1.00;1.00;;;;;11.54;50.57;102615.22;5039016;28;45612;-66
2022/02/07 11:46:05;;;;;;;;;2.00;1.00;;;;;11.57;50.54;102628.59;5038937;28;45531;-66
2022/02/07 11:48:33;;;;;;;;;3.00;2.00;;;;;11.58;50.61;102628.56;5039011;28;45328;-68
2022/02/07 11:51:02;;;;;;;;;3.00;1.00;;;;;11.58;50.27;102615.19;5038815;28;46359;-66
2022/02/07 11:53:45;;;;;;;;;5.00;1.00;;;;;11.60;50.70;102618.75;5034410;28;45356;-66
2022/02/07 11:56:20;;;;;;;;;2.50;1.00;;;;;11.62;50.24;102624.09;5039204;28;45510;-66
2022/02/07 11:58:59;;;;;;;;;3.25;2.00;;;;;11.63;50.50;102626.75;5037520;28;45402;-66
2022/02/07 12:02:20;;;;;;;;;1.75;1.00;;;;;11.66;50.16;102625.81;5038458;28;46413;-66
2022/02/07 12:04:48;;;;;;;;;4.00;1.25;;;;;11.67;50.20;102625.81;5005143;28;45753;-66
2022/02/07 12:07:21;;;;;;;;;1.25;1.25;;;;;11.70;50.08;102626.72;5035792;28;45673;-66
2022/02/07 12:10:00;;;;;;;;;1.75;1.75;;;;;11.71;50.22;102626.72;5041927;28;45334;-66
2022/02/07 12:12:40;;;;;;;;;2.00;1.00;;;;;11.75;50.26;102622.22;5042188;28;46472;-66
2022/02/07 12:15:15;;;;;;;;;2.50;0.75;;;;;11.77;50.33;102621.28;5042373;28;45685;-66
2022/02/07 12:17:46;;;;;;;;;5.00;2.00;;;;;11.78;50.32;102627.56;5023877;28;45427;-67
2022/02/07 12:20:15;;;;;;;;;2.00;2.00;;;;;11.75;50.00;102612.41;5041014;28;45503;-66
2022/02/07 12:22:57;;;;;;;;;2.25;1.50;;;;;11.81;49.73;102615.03;5036833;28;45477;-66
2022/02/07 12:25:53;;;;;;;;;2.00;1.00;;;;;11.82;49.50;102619.47;5040221;28;45616;-66
2022/02/07 12:28:38;;;;;;;;;1.00;1.00;;;;;11.83;49.23;102617.72;5037586;28;45241;-66
2022/02/07 12:31:21;;;;;;;;;5.00;2.00;;;;;11.79;49.89;102614.13;5038044;28;45315;-66
2022/02/07 12:33:58;;;;;;;;;2.75;1.00;;;;;11.86;49.45;102617.66;5042022;28;46007;-66
2022/02/07 12:36:29;;;;;;;;;3.25;2.00;;;;;11.87;49.66;102628.34;5040593;28;45564;-66
2022/02/07 12:38:57;;;;;;;;;1.25;1.25;;;;;11.87;49.49;102627.47;5036560;28;45470;-66
2022/02/07 12:41:23;;;;;;;;;2.00;1.00;;;;;11.89;49.43;102622.09;5035387;28;46118;-66
2022/02/07 12:43:51;;;;;;;;;2.25;1.75;;;;;11.92;49.77;102623.00;5033897;28;46212;-68
2022/02/07 12:46:22;;;;;;;;;2.75;1.00;;;;;11.93;49.67;102618.53;5026711;28;45390;-68
2022/02/07 12:49:00;;;;;;;;;2.75;1.75;;;;;11.97;49.66;102617.63;5033667;28;45642;-70
2022/02/07 12:51:27;;;;;;;;;2.00;1.00;;;;;11.97;49.93;102618.50;5032610;28;45770;-69
2022/02/07 12:53:53;;;;;;;;;2.00;0.75;;;;;11.93;49.62;102603.38;5033180;28;46146;-69
2022/02/07 12:56:21;;;;;;;;;2.50;1.50;;;;;11.99;49.52;102621.16;5037168;28;45505;-69
2022/02/07 12:58:50;;;;;;;;;4.50;1.00;;;;;12.02;50.10;102621.16;5037115;28;45750;-69
2022/02/07 13:01:30;;;;;;;;;1.00;1.00;;;;;12.03;49.50;102618.47;5034578;28;45592;-69
2022/02/07 13:04:05;;;;;;;;;1.25;0.75;;;;;12.02;49.96;102607.75;5037063;28;46064;-69
2022/02/07 13:06:34;;;;;;;;;3.00;1.00;;;;;11.99;49.64;102599.75;5034350;28;45782;-69
2022/02/07 13:09:03;;;;;;;;;2.00;1.00;;;;;12.01;49.63;102606.88;5030884;28;45921;-68
2022/02/07 13:11:34;;;;;;;;;3.00;1.00;;;;;12.02;49.71;102611.31;5028982;28;46199;-68
2022/02/07 13:14:00;;;;;;;;;2.75;2.00;;;;;12.01;49.69;102614.91;5036900;28;47033;-68
2022/02/07 13:16:30;;;;;;;;;3.25;2.00;;;;;12.03;49.93;102617.56;5027646;28;46095;-69
2022/02/07 13:19:20;;;;;;;;;1.75;1.00;;;;;12.01;49.89;102617.59;5037060;28;45642;-70
2022/02/07 13:21:49;;;;;;;;;2.00;2.00;;;;;12.08;49.70;102620.19;5036845;28;45495;-70
2022/02/07 13:24:17;;;;;;;;;1.75;1.25;;;;;12.10;49.97;102623.75;5036256;28;45909;-69
2022/02/07 13:26:44;;;;;;;;;2.50;2.00;;;;;12.10;49.76;102613.06;5037483;28;45734;-70
2022/02/07 13:29:15;;;;;;;;;1.25;1.00;;;;;12.08;49.57;102610.41;5036782;28;45760;-69
2022/02/07 13:31:41;;;;;;;;;2.50;1.00;;;;;12.07;49.56;102613.97;5029771;28;45773;-68
2022/02/07 13:34:21;;;;;;;;;1.50;1.00;;;;;12.09;49.76;102622.84;5036337;28;45617;-68
2022/02/07 13:36:49;;;;;;;;;2.00;2.00;;;;;12.05;49.50;102605.94;5025128;28;45792;-72
2022/02/07 13:39:17;;;;;;;;;2.00;2.00;;;;;12.11;49.49;102630.88;5036534;28;45550;-71
2022/02/07 13:41:43;;;;;;;;;3.00;2.00;;;;;12.11;49.95;102630.88;5036072;28;45674;-71
2022/02/07 13:44:08;;;;;;;;;2.00;1.75;;;;;12.10;49.96;102627.31;5036180;28;45640;-70
2022/02/07 13:46:34;;;;;;;;;3.00;1.75;;;;;12.13;49.67;102640.69;5038787;28;45523;-71
2022/02/07 13:49:01;;;;;;;;;2.50;1.50;;;;;12.12;49.55;102627.31;5038901;28;45579;-70
2022/02/07 13:51:30;;;;;;;;;2.50;1.25;;;;;12.13;50.13;102627.31;5039929;28;45383;-65
2022/02/07 13:53:57;;;;;;;;;1.00;1.00;;;;;12.14;49.82;102623.69;5038867;28;45348;-67
2022/02/07 13:56:32;;;;;;;;;2.50;2.50;;;;;12.21;49.83;102632.56;5040367;28;45507;-68
2022/02/07 13:59:12;;;;;;;;;1.00;1.00;;;;;12.17;49.76;102620.13;5040583;28;45388;-67
2022/02/07 14:01:38;;;;;;;;;3.75;2.00;;;;;12.23;49.87;102629.00;5040748;28;45328;-67
2022/02/07 14:04:14;;;;;;;;;4.25;1.75;;;;;12.26;49.65;102624.50;5039510;28;45632;-67